Thurman, Indiana
Current Conditions -  °F | °C
As of 3:54 PM on Tuesday 21 Oct 2014 (Local Time) from KFWA Reporting Station
Broken Clouds Broken Clouds  
Wind Chill: 11°   Ceiling: 3800
Heat Index: 11°   Visibility: 10mi
Dew Point:   Wind: 12mph
Humidity: 69%   Direction: 10°N
Pressure: 30.1"   Gusts: NA
Location:  41.0925°N, 84.9712°W
Report Text: KFWA 211954Z 01010KT 10SM SCT030 BKN038 11/06 A3010 RMK AO2 SLP196 T01110056
Loading
Personal Weather Stations






























Interactive Weather Map
Tropical Storm Tracking
New forecast layout! Learn more

10-Day Weather Forecast

Advertisements
Track Severe Weather on mobile